<?xml version="1.0" encoding="UTF-8" standalone="no" ?>
<gpx xmlns="http://www.topografix.com/GPX/1/1" xmlns:xsi="http://www.w3.org/2001/XMLSchema-instance" xsi:schemaLocation="http://www.topografix.com/GPX/1/1 http://www.topografix.com/GPX/1/1/gpx.xsd" version="1.1" creator="VisuGPX - https://www.visugpx.com">
  <metadata>
    <name>StLaurentsevre_MallievreMoulinGuy_11-18km</name>
    <desc><![CDATA[gnerando idor:6542746_6636816_6717107_8386774_]]></desc>
  </metadata>
  <trk>
    <name><![CDATA[StLaurentSevre_boucleMallievre_16.3km-6636816]]></name>
    <extensions>
      <line xmlns="http://www.topografix.com/GPX/gpx_style/0/2">
        <color>00FFFF</color>
        <width>4</width>
      </line>
    </extensions>
    <trkseg>
      <trkpt lat="46.95845" lon="-0.88674">
        <ele>111</ele>
        <time>2023-11-13T07:29:52Z</time>
      </trkpt>
      <trkpt lat="46.95843" lon="-0.88646">
        <ele>111</ele>
        <time>2023-11-13T07:30:18Z</time>
      </trkpt>
      <trkpt lat="46.95819" lon="-0.88607">
        <ele>111</ele>
        <time>2023-11-13T07:31:05Z</time>
      </trkpt>
      <trkpt lat="46.95799" lon="-0.88559">
        <ele>111</ele>
        <time>2023-11-13T07:31:57Z</time>
      </trkpt>
      <trkpt lat="46.95783" lon="-0.88543">
        <ele>111</ele>
        <time>2023-11-13T07:32:23Z</time>
      </trkpt>
      <trkpt lat="46.95759" lon="-0.88502">
        <ele>110</ele>
        <time>2023-11-13T07:33:12Z</time>
      </trkpt>
      <trkpt lat="46.95695" lon="-0.88442">
        <ele>111</ele>
        <time>2023-11-13T07:34:53Z</time>
      </trkpt>
      <trkpt lat="46.95666" lon="-0.88408">
        <ele>111</ele>
        <time>2023-11-13T07:35:43Z</time>
      </trkpt>
      <trkpt lat="46.95631" lon="-0.88388">
        <ele>112</ele>
        <time>2023-11-13T07:36:33Z</time>
      </trkpt>
      <trkpt lat="46.95612" lon="-0.8838">
        <ele>113</ele>
        <time>2023-11-13T07:36:59Z</time>
      </trkpt>
      <trkpt lat="46.95596" lon="-0.88367">
        <ele>114</ele>
        <time>2023-11-13T07:37:24Z</time>
      </trkpt>
      <trkpt lat="46.95583" lon="-0.88348">
        <ele>116</ele>
        <time>2023-11-13T07:37:48Z</time>
      </trkpt>
      <trkpt lat="46.95568" lon="-0.88332">
        <ele>117</ele>
        <time>2023-11-13T07:38:13Z</time>
      </trkpt>
      <trkpt lat="46.95512" lon="-0.88329">
        <ele>115</ele>
        <time>2023-11-13T07:39:28Z</time>
      </trkpt>
      <trkpt lat="46.95495" lon="-0.88339">
        <ele>114</ele>
        <time>2023-11-13T07:39:52Z</time>
      </trkpt>
      <trkpt lat="46.95448" lon="-0.88382">
        <ele>112</ele>
        <time>2023-11-13T07:41:06Z</time>
      </trkpt>
      <trkpt lat="46.9543" lon="-0.8839">
        <ele>112</ele>
        <time>2023-11-13T07:41:31Z</time>
      </trkpt>
      <trkpt lat="46.95411" lon="-0.88395">
        <ele>112</ele>
        <time>2023-11-13T07:41:57Z</time>
      </trkpt>
      <trkpt lat="46.95392" lon="-0.88392">
        <ele>112</ele>
        <time>2023-11-13T07:42:22Z</time>
      </trkpt>
      <trkpt lat="46.95354" lon="-0.88393">
        <ele>113</ele>
        <time>2023-11-13T07:43:13Z</time>
      </trkpt>
      <trkpt lat="46.95337" lon="-0.88381">
        <ele>115</ele>
        <time>2023-11-13T07:43:38Z</time>
      </trkpt>
      <trkpt lat="46.95318" lon="-0.88383">
        <ele>116</ele>
        <time>2023-11-13T07:44:04Z</time>
      </trkpt>
      <trkpt lat="46.95301" lon="-0.88388">
        <ele>117</ele>
        <time>2023-11-13T07:44:27Z</time>
      </trkpt>
      <trkpt lat="46.95284" lon="-0.88398">
        <ele>117</ele>
        <time>2023-11-13T07:44:51Z</time>
      </trkpt>
      <trkpt lat="46.95265" lon="-0.88397">
        <ele>118</ele>
        <time>2023-11-13T07:45:17Z</time>
      </trkpt>
      <trkpt lat="46.95247" lon="-0.8839">
        <ele>120</ele>
        <time>2023-11-13T07:45:42Z</time>
      </trkpt>
      <trkpt lat="46.9521" lon="-0.88395">
        <ele>119</ele>
        <time>2023-11-13T07:46:31Z</time>
      </trkpt>
      <trkpt lat="46.95192" lon="-0.88392">
        <ele>119</ele>
        <time>2023-11-13T07:46:55Z</time>
      </trkpt>
      <trkpt lat="46.95175" lon="-0.88379">
        <ele>120</ele>
        <time>2023-11-13T07:47:21Z</time>
      </trkpt>
      <trkpt lat="46.95158" lon="-0.88372">
        <ele>120</ele>
        <time>2023-11-13T07:47:44Z</time>
      </trkpt>
      <trkpt lat="46.9514" lon="-0.8836">
        <ele>120</ele>
        <time>2023-11-13T07:48:11Z</time>
      </trkpt>
      <trkpt lat="46.95124" lon="-0.88346">
        <ele>121</ele>
        <time>2023-11-13T07:48:36Z</time>
      </trkpt>
      <trkpt lat="46.95109" lon="-0.88328">
        <ele>121</ele>
        <time>2023-11-13T07:49:02Z</time>
      </trkpt>
      <trkpt lat="46.95085" lon="-0.88284">
        <ele>121</ele>
        <time>2023-11-13T07:49:53Z</time>
      </trkpt>
      <trkpt lat="46.95072" lon="-0.88233">
        <ele>123</ele>
        <time>2023-11-13T07:50:43Z</time>
      </trkpt>
      <trkpt lat="46.95061" lon="-0.88211">
        <ele>122</ele>
        <time>2023-11-13T07:51:07Z</time>
      </trkpt>
      <trkpt lat="46.95034" lon="-0.88174">
        <ele>121</ele>
        <time>2023-11-13T07:51:57Z</time>
      </trkpt>
      <trkpt lat="46.95003" lon="-0.8814">
        <ele>119</ele>
        <time>2023-11-13T07:52:48Z</time>
      </trkpt>
      <trkpt lat="46.9499" lon="-0.88121">
        <ele>119</ele>
        <time>2023-11-13T07:53:13Z</time>
      </trkpt>
      <trkpt lat="46.94956" lon="-0.88054">
        <ele>120</ele>
        <time>2023-11-13T07:54:29Z</time>
      </trkpt>
      <trkpt lat="46.94943" lon="-0.88034">
        <ele>121</ele>
        <time>2023-11-13T07:54:54Z</time>
      </trkpt>
      <trkpt lat="46.94928" lon="-0.88019">
        <ele>121</ele>
        <time>2023-11-13T07:55:18Z</time>
      </trkpt>
      <trkpt lat="46.94915" lon="-0.87998">
        <ele>122</ele>
        <time>2023-11-13T07:55:44Z</time>
      </trkpt>
      <trkpt lat="46.9488" lon="-0.87904">
        <ele>127</ele>
        <time>2023-11-13T07:57:22Z</time>
      </trkpt>
      <trkpt lat="46.94883" lon="-0.87823">
        <ele>134</ele>
        <time>2023-11-13T07:58:36Z</time>
      </trkpt>
      <trkpt lat="46.94878" lon="-0.87797">
        <ele>134</ele>
        <time>2023-11-13T07:59:00Z</time>
      </trkpt>
      <trkpt lat="46.9487" lon="-0.87772">
        <ele>135</ele>
        <time>2023-11-13T07:59:25Z</time>
      </trkpt>
      <trkpt lat="46.94867" lon="-0.87746">
        <ele>135</ele>
        <time>2023-11-13T07:59:49Z</time>
      </trkpt>
      <trkpt lat="46.94872" lon="-0.87719">
        <ele>137</ele>
        <time>2023-11-13T08:00:15Z</time>
      </trkpt>
      <trkpt lat="46.94822" lon="-0.87757">
        <ele>134</ele>
        <time>2023-11-13T08:01:30Z</time>
      </trkpt>
      <trkpt lat="46.94787" lon="-0.87775">
        <ele>136</ele>
        <time>2023-11-13T08:02:20Z</time>
      </trkpt>
      <trkpt lat="46.94766" lon="-0.8782">
        <ele>133</ele>
        <time>2023-11-13T08:03:09Z</time>
      </trkpt>
      <trkpt lat="46.94758" lon="-0.87844">
        <ele>131</ele>
        <time>2023-11-13T08:03:33Z</time>
      </trkpt>
      <trkpt lat="46.94737" lon="-0.87948">
        <ele>122</ele>
        <time>2023-11-13T08:05:12Z</time>
      </trkpt>
      <trkpt lat="46.94737" lon="-0.87974">
        <ele>121</ele>
        <time>2023-11-13T08:05:36Z</time>
      </trkpt>
      <trkpt lat="46.94731" lon="-0.88001">
        <ele>120</ele>
        <time>2023-11-13T08:06:02Z</time>
      </trkpt>
      <trkpt lat="46.94717" lon="-0.8802">
        <ele>121</ele>
        <time>2023-11-13T08:06:27Z</time>
      </trkpt>
      <trkpt lat="46.947" lon="-0.8803">
        <ele>121</ele>
        <time>2023-11-13T08:06:52Z</time>
      </trkpt>
      <trkpt lat="46.94682" lon="-0.88037">
        <ele>122</ele>
        <time>2023-11-13T08:07:17Z</time>
      </trkpt>
      <trkpt lat="46.94648" lon="-0.88017">
        <ele>126</ele>
        <time>2023-11-13T08:08:06Z</time>
      </trkpt>
      <trkpt lat="46.94611" lon="-0.88006">
        <ele>132</ele>
        <time>2023-11-13T08:08:56Z</time>
      </trkpt>
      <trkpt lat="46.94594" lon="-0.88015">
        <ele>133</ele>
        <time>2023-11-13T08:09:20Z</time>
      </trkpt>
      <trkpt lat="46.94574" lon="-0.88009">
        <ele>136</ele>
        <time>2023-11-13T08:09:47Z</time>
      </trkpt>
      <trkpt lat="46.94563" lon="-0.87988">
        <ele>140</ele>
        <time>2023-11-13T08:10:11Z</time>
      </trkpt>
      <trkpt lat="46.94553" lon="-0.87936">
        <ele>145</ele>
        <time>2023-11-13T08:11:01Z</time>
      </trkpt>
      <trkpt lat="46.94522" lon="-0.87908">
        <ele>149</ele>
        <time>2023-11-13T08:11:49Z</time>
      </trkpt>
      <trkpt lat="46.94517" lon="-0.87882">
        <ele>151</ele>
        <time>2023-11-13T08:12:14Z</time>
      </trkpt>
      <trkpt lat="46.94523" lon="-0.87856">
        <ele>153</ele>
        <time>2023-11-13T08:12:39Z</time>
      </trkpt>
      <trkpt lat="46.94539" lon="-0.87842">
        <ele>153</ele>
        <time>2023-11-13T08:13:04Z</time>
      </trkpt>
      <trkpt lat="46.94549" lon="-0.8782">
        <ele>155</ele>
        <time>2023-11-13T08:13:28Z</time>
      </trkpt>
      <trkpt lat="46.94556" lon="-0.87795">
        <ele>156</ele>
        <time>2023-11-13T08:13:52Z</time>
      </trkpt>
      <trkpt lat="46.94571" lon="-0.87777">
        <ele>158</ele>
        <time>2023-11-13T08:14:18Z</time>
      </trkpt>
      <trkpt lat="46.94574" lon="-0.8775">
        <ele>160</ele>
        <time>2023-11-13T08:14:43Z</time>
      </trkpt>
      <trkpt lat="46.94585" lon="-0.87729">
        <ele>160</ele>
        <time>2023-11-13T08:15:07Z</time>
      </trkpt>
      <trkpt lat="46.94566" lon="-0.87683">
        <ele>160</ele>
        <time>2023-11-13T08:15:56Z</time>
      </trkpt>
      <trkpt lat="46.94562" lon="-0.87657">
        <ele>160</ele>
        <time>2023-11-13T08:16:21Z</time>
      </trkpt>
      <trkpt lat="46.94563" lon="-0.8763">
        <ele>160</ele>
        <time>2023-11-13T08:16:45Z</time>
      </trkpt>
      <trkpt lat="46.94607" lon="-0.87543">
        <ele>157</ele>
        <time>2023-11-13T08:18:24Z</time>
      </trkpt>
      <trkpt lat="46.94702" lon="-0.87377">
        <ele>160</ele>
        <time>2023-11-13T08:21:41Z</time>
      </trkpt>
      <trkpt lat="46.94711" lon="-0.87354">
        <ele>160</ele>
        <time>2023-11-13T08:22:05Z</time>
      </trkpt>
      <trkpt lat="46.94708" lon="-0.87328">
        <ele>160</ele>
        <time>2023-11-13T08:22:29Z</time>
      </trkpt>
      <trkpt lat="46.94691" lon="-0.87315">
        <ele>161</ele>
        <time>2023-11-13T08:22:55Z</time>
      </trkpt>
      <trkpt lat="46.94677" lon="-0.87298">
        <ele>161</ele>
        <time>2023-11-13T08:23:19Z</time>
      </trkpt>
      <trkpt lat="46.9462" lon="-0.87226">
        <ele>164</ele>
        <time>2023-11-13T08:25:00Z</time>
      </trkpt>
      <trkpt lat="46.94593" lon="-0.87188">
        <ele>166</ele>
        <time>2023-11-13T08:25:50Z</time>
      </trkpt>
      <trkpt lat="46.94558" lon="-0.87126">
        <ele>170</ele>
        <time>2023-11-13T08:27:03Z</time>
      </trkpt>
      <trkpt lat="46.94538" lon="-0.87081">
        <ele>172</ele>
        <time>2023-11-13T08:27:52Z</time>
      </trkpt>
      <trkpt lat="46.94486" lon="-0.87003">
        <ele>171</ele>
        <time>2023-11-13T08:29:31Z</time>
      </trkpt>
      <trkpt lat="46.94432" lon="-0.8693">
        <ele>168</ele>
        <time>2023-11-13T08:31:09Z</time>
      </trkpt>
      <trkpt lat="46.94393" lon="-0.86872">
        <ele>166</ele>
        <time>2023-11-13T08:32:23Z</time>
      </trkpt>
      <trkpt lat="46.94382" lon="-0.8685">
        <ele>166</ele>
        <time>2023-11-13T08:32:48Z</time>
      </trkpt>
      <trkpt lat="46.94355" lon="-0.86814">
        <ele>165</ele>
        <time>2023-11-13T08:33:37Z</time>
      </trkpt>
      <trkpt lat="46.94292" lon="-0.86754">
        <ele>163</ele>
        <time>2023-11-13T08:35:17Z</time>
      </trkpt>
      <trkpt lat="46.94248" lon="-0.86703">
        <ele>164</ele>
        <time>2023-11-13T08:36:32Z</time>
      </trkpt>
      <trkpt lat="46.94181" lon="-0.8661">
        <ele>161</ele>
        <time>2023-11-13T08:38:35Z</time>
      </trkpt>
      <trkpt lat="46.94136" lon="-0.86562">
        <ele>159</ele>
        <time>2023-11-13T08:39:50Z</time>
      </trkpt>
      <trkpt lat="46.94089" lon="-0.86519">
        <ele>156</ele>
        <time>2023-11-13T08:41:03Z</time>
      </trkpt>
      <trkpt lat="46.94039" lon="-0.86484">
        <ele>153</ele>
        <time>2023-11-13T08:42:17Z</time>
      </trkpt>
      <trkpt lat="46.94021" lon="-0.86476">
        <ele>152</ele>
        <time>2023-11-13T08:42:43Z</time>
      </trkpt>
      <trkpt lat="46.9399" lon="-0.86445">
        <ele>151</ele>
        <time>2023-11-13T08:43:33Z</time>
      </trkpt>
      <trkpt lat="46.93965" lon="-0.86405">
        <ele>152</ele>
        <time>2023-11-13T08:44:22Z</time>
      </trkpt>
      <trkpt lat="46.93948" lon="-0.86329">
        <ele>154</ele>
        <time>2023-11-13T08:45:35Z</time>
      </trkpt>
      <trkpt lat="46.9393" lon="-0.8628">
        <ele>155</ele>
        <time>2023-11-13T08:46:26Z</time>
      </trkpt>
      <trkpt lat="46.93919" lon="-0.86258">
        <ele>155</ele>
        <time>2023-11-13T08:46:50Z</time>
      </trkpt>
      <trkpt lat="46.93894" lon="-0.8622">
        <ele>155</ele>
        <time>2023-11-13T08:47:39Z</time>
      </trkpt>
      <trkpt lat="46.93879" lon="-0.86203">
        <ele>155</ele>
        <time>2023-11-13T08:48:04Z</time>
      </trkpt>
      <trkpt lat="46.93816" lon="-0.86144">
        <ele>156</ele>
        <time>2023-11-13T08:49:44Z</time>
      </trkpt>
      <trkpt lat="46.93773" lon="-0.86097">
        <ele>159</ele>
        <time>2023-11-13T08:50:55Z</time>
      </trkpt>
      <trkpt lat="46.9368" lon="-0.86004">
        <ele>165</ele>
        <time>2023-11-13T08:53:26Z</time>
      </trkpt>
      <trkpt lat="46.93664" lon="-0.85991">
        <ele>166</ele>
        <time>2023-11-13T08:53:50Z</time>
      </trkpt>
      <trkpt lat="46.93612" lon="-0.8596">
        <ele>166</ele>
        <time>2023-11-13T08:55:05Z</time>
      </trkpt>
      <trkpt lat="46.93606" lon="-0.85986">
        <ele>166</ele>
        <time>2023-11-13T08:55:30Z</time>
      </trkpt>
      <trkpt lat="46.93606" lon="-0.86012">
        <ele>166</ele>
        <time>2023-11-13T08:55:54Z</time>
      </trkpt>
      <trkpt lat="46.93592" lon="-0.86031">
        <ele>166</ele>
        <time>2023-11-13T08:56:19Z</time>
      </trkpt>
      <trkpt lat="46.93539" lon="-0.86059">
        <ele>164</ele>
        <time>2023-11-13T08:57:34Z</time>
      </trkpt>
      <trkpt lat="46.93522" lon="-0.86071">
        <ele>164</ele>
        <time>2023-11-13T08:57:59Z</time>
      </trkpt>
      <trkpt lat="46.93473" lon="-0.86111">
        <ele>163</ele>
        <time>2023-11-13T08:59:14Z</time>
      </trkpt>
      <trkpt lat="46.93444" lon="-0.86144">
        <ele>163</ele>
        <time>2023-11-13T09:00:03Z</time>
      </trkpt>
      <trkpt lat="46.93412" lon="-0.8621">
        <ele>162</ele>
        <time>2023-11-13T09:01:17Z</time>
      </trkpt>
      <trkpt lat="46.93385" lon="-0.86281">
        <ele>159</ele>
        <time>2023-11-13T09:02:31Z</time>
      </trkpt>
      <trkpt lat="46.93374" lon="-0.86303">
        <ele>158</ele>
        <time>2023-11-13T09:02:56Z</time>
      </trkpt>
      <trkpt lat="46.93367" lon="-0.86329">
        <ele>158</ele>
        <time>2023-11-13T09:03:21Z</time>
      </trkpt>
      <trkpt lat="46.93358" lon="-0.86437">
        <ele>157</ele>
        <time>2023-11-13T09:05:01Z</time>
      </trkpt>
      <trkpt lat="46.93365" lon="-0.86462">
        <ele>156</ele>
        <time>2023-11-13T09:05:25Z</time>
      </trkpt>
      <trkpt lat="46.93388" lon="-0.86504">
        <ele>153</ele>
        <time>2023-11-13T09:06:14Z</time>
      </trkpt>
      <trkpt lat="46.93416" lon="-0.86541">
        <ele>150</ele>
        <time>2023-11-13T09:07:05Z</time>
      </trkpt>
      <trkpt lat="46.93431" lon="-0.86554">
        <ele>149</ele>
        <time>2023-11-13T09:07:28Z</time>
      </trkpt>
      <trkpt lat="46.9345" lon="-0.86563">
        <ele>148</ele>
        <time>2023-11-13T09:07:54Z</time>
      </trkpt>
      <trkpt lat="46.93458" lon="-0.86587">
        <ele>146</ele>
        <time>2023-11-13T09:08:19Z</time>
      </trkpt>
      <trkpt lat="46.93443" lon="-0.86664">
        <ele>138</ele>
        <time>2023-11-13T09:09:32Z</time>
      </trkpt>
      <trkpt lat="46.93434" lon="-0.86688">
        <ele>136</ele>
        <time>2023-11-13T09:09:57Z</time>
      </trkpt>
      <trkpt lat="46.9343" lon="-0.86713">
        <ele>134</ele>
        <time>2023-11-13T09:10:20Z</time>
      </trkpt>
      <trkpt lat="46.93411" lon="-0.86789">
        <ele>127</ele>
        <time>2023-11-13T09:11:34Z</time>
      </trkpt>
      <trkpt lat="46.93402" lon="-0.86813">
        <ele>125</ele>
        <time>2023-11-13T09:11:59Z</time>
      </trkpt>
      <trkpt lat="46.93389" lon="-0.86832">
        <ele>124</ele>
        <time>2023-11-13T09:12:23Z</time>
      </trkpt>
      <trkpt lat="46.93373" lon="-0.86848">
        <ele>125</ele>
        <time>2023-11-13T09:12:49Z</time>
      </trkpt>
      <trkpt lat="46.93357" lon="-0.8686">
        <ele>125</ele>
        <time>2023-11-13T09:13:13Z</time>
      </trkpt>
      <trkpt lat="46.93301" lon="-0.86862">
        <ele>126</ele>
        <time>2023-11-13T09:14:28Z</time>
      </trkpt>
      <trkpt lat="46.93283" lon="-0.86856">
        <ele>126</ele>
        <time>2023-11-13T09:14:53Z</time>
      </trkpt>
      <trkpt lat="46.93264" lon="-0.86856">
        <ele>127</ele>
        <time>2023-11-13T09:15:18Z</time>
      </trkpt>
      <trkpt lat="46.93246" lon="-0.86862">
        <ele>126</ele>
        <time>2023-11-13T09:15:43Z</time>
      </trkpt>
      <trkpt lat="46.93209" lon="-0.86855">
        <ele>126</ele>
        <time>2023-11-13T09:16:32Z</time>
      </trkpt>
      <trkpt lat="46.93193" lon="-0.86841">
        <ele>126</ele>
        <time>2023-11-13T09:16:57Z</time>
      </trkpt>
      <trkpt lat="46.93174" lon="-0.86835">
        <ele>126</ele>
        <time>2023-11-13T09:17:23Z</time>
      </trkpt>
      <trkpt lat="46.93156" lon="-0.86839">
        <ele>125</ele>
        <time>2023-11-13T09:17:47Z</time>
      </trkpt>
      <trkpt lat="46.93139" lon="-0.8683">
        <ele>125</ele>
        <time>2023-11-13T09:18:12Z</time>
      </trkpt>
      <trkpt lat="46.93124" lon="-0.86815">
        <ele>125</ele>
        <time>2023-11-13T09:18:36Z</time>
      </trkpt>
      <trkpt lat="46.93133" lon="-0.86791">
        <ele>127</ele>
        <time>2023-11-13T09:19:01Z</time>
      </trkpt>
      <trkpt lat="46.93124" lon="-0.86767">
        <ele>127</ele>
        <time>2023-11-13T09:19:26Z</time>
      </trkpt>
      <trkpt lat="46.93104" lon="-0.86692">
        <ele>126</ele>
        <time>2023-11-13T09:20:39Z</time>
      </trkpt>
      <trkpt lat="46.93072" lon="-0.86595">
        <ele>124</ele>
        <time>2023-11-13T09:22:17Z</time>
      </trkpt>
      <trkpt lat="46.93059" lon="-0.86575">
        <ele>124</ele>
        <time>2023-11-13T09:22:42Z</time>
      </trkpt>
      <trkpt lat="46.93023" lon="-0.86591">
        <ele>122</ele>
        <time>2023-11-13T09:23:33Z</time>
      </trkpt>
      <trkpt lat="46.92988" lon="-0.8661">
        <ele>121</ele>
        <time>2023-11-13T09:24:22Z</time>
      </trkpt>
      <trkpt lat="46.9297" lon="-0.8661">
        <ele>121</ele>
        <time>2023-11-13T09:24:46Z</time>
      </trkpt>
      <trkpt lat="46.92892" lon="-0.86535">
        <ele>126</ele>
        <time>2023-11-13T09:26:51Z</time>
      </trkpt>
      <trkpt lat="46.92875" lon="-0.86527">
        <ele>128</ele>
        <time>2023-11-13T09:27:15Z</time>
      </trkpt>
      <trkpt lat="46.92828" lon="-0.86569">
        <ele>133</ele>
        <time>2023-11-13T09:28:28Z</time>
      </trkpt>
      <trkpt lat="46.92818" lon="-0.86591">
        <ele>135</ele>
        <time>2023-11-13T09:28:52Z</time>
      </trkpt>
      <trkpt lat="46.92801" lon="-0.86601">
        <ele>139</ele>
        <time>2023-11-13T09:29:17Z</time>
      </trkpt>
      <trkpt lat="46.92767" lon="-0.86581">
        <ele>150</ele>
        <time>2023-11-13T09:30:06Z</time>
      </trkpt>
      <trkpt lat="46.92749" lon="-0.86579">
        <ele>155</ele>
        <time>2023-11-13T09:30:30Z</time>
      </trkpt>
      <trkpt lat="46.92732" lon="-0.86567">
        <ele>158</ele>
        <time>2023-11-13T09:30:55Z</time>
      </trkpt>
      <trkpt lat="46.92714" lon="-0.86565">
        <ele>160</ele>
        <time>2023-11-13T09:31:19Z</time>
      </trkpt>
      <trkpt lat="46.92697" lon="-0.86572">
        <ele>162</ele>
        <time>2023-11-13T09:31:43Z</time>
      </trkpt>
      <trkpt lat="46.92665" lon="-0.86602">
        <ele>164</ele>
        <time>2023-11-13T09:32:33Z</time>
      </trkpt>
      <trkpt lat="46.92647" lon="-0.86611">
        <ele>165</ele>
        <time>2023-11-13T09:32:59Z</time>
      </trkpt>
      <trkpt lat="46.92572" lon="-0.86626">
        <ele>170</ele>
        <time>2023-11-13T09:34:40Z</time>
      </trkpt>
      <trkpt lat="46.92555" lon="-0.86634">
        <ele>172</ele>
        <time>2023-11-13T09:35:04Z</time>
      </trkpt>
      <trkpt lat="46.92536" lon="-0.86638">
        <ele>173</ele>
        <time>2023-11-13T09:35:29Z</time>
      </trkpt>
      <trkpt lat="46.92463" lon="-0.86635">
        <ele>179</ele>
        <time>2023-11-13T09:37:07Z</time>
      </trkpt>
      <trkpt lat="46.92445" lon="-0.86632">
        <ele>180</ele>
        <time>2023-11-13T09:37:31Z</time>
      </trkpt>
      <trkpt lat="46.92427" lon="-0.86638">
        <ele>181</ele>
        <time>2023-11-13T09:37:55Z</time>
      </trkpt>
      <trkpt lat="46.92409" lon="-0.86634">
        <ele>183</ele>
        <time>2023-11-13T09:38:20Z</time>
      </trkpt>
      <trkpt lat="46.92374" lon="-0.86614">
        <ele>185</ele>
        <time>2023-11-13T09:39:10Z</time>
      </trkpt>
      <trkpt lat="46.92364" lon="-0.86591">
        <ele>186</ele>
        <time>2023-11-13T09:39:35Z</time>
      </trkpt>
      <trkpt lat="46.92346" lon="-0.8659">
        <ele>186</ele>
        <time>2023-11-13T09:39:59Z</time>
      </trkpt>
      <trkpt lat="46.92328" lon="-0.86601">
        <ele>187</ele>
        <time>2023-11-13T09:40:25Z</time>
      </trkpt>
      <trkpt lat="46.92311" lon="-0.86608">
        <ele>187</ele>
        <time>2023-11-13T09:40:48Z</time>
      </trkpt>
      <trkpt lat="46.92275" lon="-0.86617">
        <ele>186</ele>
        <time>2023-11-13T09:41:37Z</time>
      </trkpt>
      <trkpt lat="46.92257" lon="-0.86624">
        <ele>186</ele>
        <time>2023-11-13T09:42:02Z</time>
      </trkpt>
      <trkpt lat="46.92206" lon="-0.86655">
        <ele>184</ele>
        <time>2023-11-13T09:43:16Z</time>
      </trkpt>
      <trkpt lat="46.92188" lon="-0.86662">
        <ele>184</ele>
        <time>2023-11-13T09:43:40Z</time>
      </trkpt>
      <trkpt lat="46.92151" lon="-0.86667">
        <ele>182</ele>
        <time>2023-11-13T09:44:30Z</time>
      </trkpt>
      <trkpt lat="46.92076" lon="-0.86664">
        <ele>179</ele>
        <time>2023-11-13T09:46:10Z</time>
      </trkpt>
      <trkpt lat="46.92021" lon="-0.86652">
        <ele>176</ele>
        <time>2023-11-13T09:47:24Z</time>
      </trkpt>
      <trkpt lat="46.91947" lon="-0.86651">
        <ele>172</ele>
        <time>2023-11-13T09:49:03Z</time>
      </trkpt>
      <trkpt lat="46.9193" lon="-0.86642">
        <ele>171</ele>
        <time>2023-11-13T09:49:27Z</time>
      </trkpt>
      <trkpt lat="46.91912" lon="-0.86641">
        <ele>170</ele>
        <time>2023-11-13T09:49:51Z</time>
      </trkpt>
      <trkpt lat="46.91894" lon="-0.86648">
        <ele>169</ele>
        <time>2023-11-13T09:50:16Z</time>
      </trkpt>
      <trkpt lat="46.91875" lon="-0.86645">
        <ele>167</ele>
        <time>2023-11-13T09:50:42Z</time>
      </trkpt>
      <trkpt lat="46.91838" lon="-0.86644">
        <ele>164</ele>
        <time>2023-11-13T09:51:31Z</time>
      </trkpt>
      <trkpt lat="46.91801" lon="-0.86636">
        <ele>162</ele>
        <time>2023-11-13T09:52:21Z</time>
      </trkpt>
      <trkpt lat="46.91765" lon="-0.86624">
        <ele>160</ele>
        <time>2023-11-13T09:53:10Z</time>
      </trkpt>
      <trkpt lat="46.91731" lon="-0.86602">
        <ele>158</ele>
        <time>2023-11-13T09:54:00Z</time>
      </trkpt>
      <trkpt lat="46.91685" lon="-0.86562">
        <ele>156</ele>
        <time>2023-11-13T09:55:11Z</time>
      </trkpt>
      <trkpt lat="46.91649" lon="-0.86541">
        <ele>153</ele>
        <time>2023-11-13T09:56:03Z</time>
      </trkpt>
      <trkpt lat="46.91635" lon="-0.86522">
        <ele>153</ele>
        <time>2023-11-13T09:56:28Z</time>
      </trkpt>
      <trkpt lat="46.9162" lon="-0.86507">
        <ele>152</ele>
        <time>2023-11-13T09:56:53Z</time>
      </trkpt>
      <trkpt lat="46.91602" lon="-0.86514">
        <ele>150</ele>
        <time>2023-11-13T09:57:17Z</time>
      </trkpt>
      <trkpt lat="46.91568" lon="-0.86536">
        <ele>149</ele>
        <time>2023-11-13T09:58:07Z</time>
      </trkpt>
      <trkpt lat="46.9155" lon="-0.86543">
        <ele>148</ele>
        <time>2023-11-13T09:58:32Z</time>
      </trkpt>
      <trkpt lat="46.9152" lon="-0.86572">
        <ele>147</ele>
        <time>2023-11-13T09:59:20Z</time>
      </trkpt>
      <trkpt lat="46.91407" lon="-0.86664">
        <ele>142</ele>
        <time>2023-11-13T10:02:12Z</time>
      </trkpt>
      <trkpt lat="46.91325" lon="-0.86723">
        <ele>139</ele>
        <time>2023-11-13T10:04:14Z</time>
      </trkpt>
      <trkpt lat="46.91319" lon="-0.86749">
        <ele>138</ele>
        <time>2023-11-13T10:04:39Z</time>
      </trkpt>
      <trkpt lat="46.91325" lon="-0.86774">
        <ele>137</ele>
        <time>2023-11-13T10:05:04Z</time>
      </trkpt>
      <trkpt lat="46.91328" lon="-0.868">
        <ele>135</ele>
        <time>2023-11-13T10:05:28Z</time>
      </trkpt>
      <trkpt lat="46.91335" lon="-0.86825">
        <ele>134</ele>
        <time>2023-11-13T10:05:52Z</time>
      </trkpt>
      <trkpt lat="46.91338" lon="-0.86851">
        <ele>132</ele>
        <time>2023-11-13T10:06:16Z</time>
      </trkpt>
      <trkpt lat="46.91328" lon="-0.86875">
        <ele>130</ele>
        <time>2023-11-13T10:06:42Z</time>
      </trkpt>
      <trkpt lat="46.9131" lon="-0.86878">
        <ele>130</ele>
        <time>2023-11-13T10:07:06Z</time>
      </trkpt>
      <trkpt lat="46.91274" lon="-0.86878">
        <ele>129</ele>
        <time>2023-11-13T10:07:54Z</time>
      </trkpt>
      <trkpt lat="46.91255" lon="-0.86875">
        <ele>129</ele>
        <time>2023-11-13T10:08:20Z</time>
      </trkpt>
      <trkpt lat="46.91239" lon="-0.86865">
        <ele>129</ele>
        <time>2023-11-13T10:08:43Z</time>
      </trkpt>
      <trkpt lat="46.91225" lon="-0.86847">
        <ele>130</ele>
        <time>2023-11-13T10:09:08Z</time>
      </trkpt>
      <trkpt lat="46.91204" lon="-0.86803">
        <ele>131</ele>
        <time>2023-11-13T10:09:57Z</time>
      </trkpt>
      <trkpt lat="46.91187" lon="-0.86755">
        <ele>131</ele>
        <time>2023-11-13T10:10:46Z</time>
      </trkpt>
      <trkpt lat="46.91172" lon="-0.86741">
        <ele>131</ele>
        <time>2023-11-13T10:11:10Z</time>
      </trkpt>
      <trkpt lat="46.91153" lon="-0.86737">
        <ele>130</ele>
        <time>2023-11-13T10:11:35Z</time>
      </trkpt>
      <trkpt lat="46.91137" lon="-0.86724">
        <ele>130</ele>
        <time>2023-11-13T10:12:00Z</time>
      </trkpt>
      <trkpt lat="46.9112" lon="-0.86716">
        <ele>129</ele>
        <time>2023-11-13T10:12:24Z</time>
      </trkpt>
      <trkpt lat="46.91115" lon="-0.8669">
        <ele>130</ele>
        <time>2023-11-13T10:12:48Z</time>
      </trkpt>
      <trkpt lat="46.91123" lon="-0.86666">
        <ele>131</ele>
        <time>2023-11-13T10:13:12Z</time>
      </trkpt>
      <trkpt lat="46.91112" lon="-0.86587">
        <ele>131</ele>
        <time>2023-11-13T10:14:26Z</time>
      </trkpt>
      <trkpt lat="46.91104" lon="-0.86563">
        <ele>132</ele>
        <time>2023-11-13T10:14:50Z</time>
      </trkpt>
      <trkpt lat="46.91118" lon="-0.86513">
        <ele>138</ele>
        <time>2023-11-13T10:15:40Z</time>
      </trkpt>
      <trkpt lat="46.911" lon="-0.86465">
        <ele>142</ele>
        <time>2023-11-13T10:16:30Z</time>
      </trkpt>
      <trkpt lat="46.91096" lon="-0.86386">
        <ele>149</ele>
        <time>2023-11-13T10:17:42Z</time>
      </trkpt>
      <trkpt lat="46.91078" lon="-0.86391">
        <ele>149</ele>
        <time>2023-11-13T10:18:06Z</time>
      </trkpt>
      <trkpt lat="46.91079" lon="-0.86418">
        <ele>148</ele>
        <time>2023-11-13T10:18:31Z</time>
      </trkpt>
      <trkpt lat="46.91089" lon="-0.86395">
        <ele>149</ele>
        <time>2023-11-13T10:18:56Z</time>
      </trkpt>
      <trkpt lat="46.91106" lon="-0.86385">
        <ele>149</ele>
        <time>2023-11-13T10:19:20Z</time>
      </trkpt>
      <trkpt lat="46.9112" lon="-0.86403">
        <ele>148</ele>
        <time>2023-11-13T10:19:45Z</time>
      </trkpt>
      <trkpt lat="46.91156" lon="-0.86392">
        <ele>149</ele>
        <time>2023-11-13T10:20:34Z</time>
      </trkpt>
      <trkpt lat="46.91173" lon="-0.86384">
        <ele>149</ele>
        <time>2023-11-13T10:20:58Z</time>
      </trkpt>
      <trkpt lat="46.91191" lon="-0.86385">
        <ele>148</ele>
        <time>2023-11-13T10:21:22Z</time>
      </trkpt>
      <trkpt lat="46.91202" lon="-0.86406">
        <ele>147</ele>
        <time>2023-11-13T10:21:46Z</time>
      </trkpt>
      <trkpt lat="46.91206" lon="-0.86459">
        <ele>142</ele>
        <time>2023-11-13T10:22:35Z</time>
      </trkpt>
      <trkpt lat="46.91222" lon="-0.86447">
        <ele>143</ele>
        <time>2023-11-13T10:22:59Z</time>
      </trkpt>
      <trkpt lat="46.91205" lon="-0.86457">
        <ele>143</ele>
        <time>2023-11-13T10:23:23Z</time>
      </trkpt>
      <trkpt lat="46.91201" lon="-0.86483">
        <ele>140</ele>
        <time>2023-11-13T10:23:47Z</time>
      </trkpt>
      <trkpt lat="46.91194" lon="-0.86507">
        <ele>139</ele>
        <time>2023-11-13T10:24:11Z</time>
      </trkpt>
      <trkpt lat="46.9118" lon="-0.86526">
        <ele>139</ele>
        <time>2023-11-13T10:24:37Z</time>
      </trkpt>
      <trkpt lat="46.91197" lon="-0.86534">
        <ele>138</ele>
        <time>2023-11-13T10:25:01Z</time>
      </trkpt>
      <trkpt lat="46.91206" lon="-0.86557">
        <ele>137</ele>
        <time>2023-11-13T10:25:25Z</time>
      </trkpt>
      <trkpt lat="46.91203" lon="-0.86584">
        <ele>136</ele>
        <time>2023-11-13T10:25:50Z</time>
      </trkpt>
      <trkpt lat="46.91197" lon="-0.8661">
        <ele>136</ele>
        <time>2023-11-13T10:26:15Z</time>
      </trkpt>
      <trkpt lat="46.91191" lon="-0.86665">
        <ele>135</ele>
        <time>2023-11-13T10:27:05Z</time>
      </trkpt>
      <trkpt lat="46.91179" lon="-0.86717">
        <ele>132</ele>
        <time>2023-11-13T10:27:55Z</time>
      </trkpt>
      <trkpt lat="46.91186" lon="-0.86742">
        <ele>132</ele>
        <time>2023-11-13T10:28:20Z</time>
      </trkpt>
      <trkpt lat="46.91178" lon="-0.86767">
        <ele>130</ele>
        <time>2023-11-13T10:28:45Z</time>
      </trkpt>
      <trkpt lat="46.91183" lon="-0.86742">
        <ele>131</ele>
        <time>2023-11-13T10:29:09Z</time>
      </trkpt>
      <trkpt lat="46.91194" lon="-0.86763">
        <ele>131</ele>
        <time>2023-11-13T10:29:33Z</time>
      </trkpt>
      <trkpt lat="46.91211" lon="-0.86812">
        <ele>131</ele>
        <time>2023-11-13T10:30:23Z</time>
      </trkpt>
      <trkpt lat="46.91237" lon="-0.8685">
        <ele>130</ele>
        <time>2023-11-13T10:31:12Z</time>
      </trkpt>
      <trkpt lat="46.91252" lon="-0.86865">
        <ele>130</ele>
        <time>2023-11-13T10:31:36Z</time>
      </trkpt>
      <trkpt lat="46.9127" lon="-0.86871">
        <ele>130</ele>
        <time>2023-11-13T10:32:01Z</time>
      </trkpt>
      <trkpt lat="46.91307" lon="-0.86874">
        <ele>130</ele>
        <time>2023-11-13T10:32:51Z</time>
      </trkpt>
      <trkpt lat="46.91324" lon="-0.86886">
        <ele>129</ele>
        <time>2023-11-13T10:33:16Z</time>
      </trkpt>
      <trkpt lat="46.91338" lon="-0.86903">
        <ele>128</ele>
        <time>2023-11-13T10:33:40Z</time>
      </trkpt>
      <trkpt lat="46.91338" lon="-0.86931">
        <ele>127</ele>
        <time>2023-11-13T10:34:06Z</time>
      </trkpt>
      <trkpt lat="46.91348" lon="-0.86983">
        <ele>126</ele>
        <time>2023-11-13T10:34:55Z</time>
      </trkpt>
      <trkpt lat="46.91361" lon="-0.87002">
        <ele>126</ele>
        <time>2023-11-13T10:35:19Z</time>
      </trkpt>
      <trkpt lat="46.9141" lon="-0.87039">
        <ele>126</ele>
        <time>2023-11-13T10:36:33Z</time>
      </trkpt>
      <trkpt lat="46.91444" lon="-0.87059">
        <ele>126</ele>
        <time>2023-11-13T10:37:22Z</time>
      </trkpt>
      <trkpt lat="46.91482" lon="-0.87118">
        <ele>125</ele>
        <time>2023-11-13T10:38:36Z</time>
      </trkpt>
      <trkpt lat="46.91493" lon="-0.87141">
        <ele>125</ele>
        <time>2023-11-13T10:39:01Z</time>
      </trkpt>
      <trkpt lat="46.91513" lon="-0.87215">
        <ele>124</ele>
        <time>2023-11-13T10:40:14Z</time>
      </trkpt>
      <trkpt lat="46.91547" lon="-0.87277">
        <ele>124</ele>
        <time>2023-11-13T10:41:26Z</time>
      </trkpt>
      <trkpt lat="46.91604" lon="-0.87346">
        <ele>125</ele>
        <time>2023-11-13T10:43:05Z</time>
      </trkpt>
      <trkpt lat="46.9162" lon="-0.87357">
        <ele>125</ele>
        <time>2023-11-13T10:43:29Z</time>
      </trkpt>
      <trkpt lat="46.91628" lon="-0.87381">
        <ele>126</ele>
        <time>2023-11-13T10:43:53Z</time>
      </trkpt>
      <trkpt lat="46.91641" lon="-0.87401">
        <ele>126</ele>
        <time>2023-11-13T10:44:18Z</time>
      </trkpt>
      <trkpt lat="46.91695" lon="-0.87425">
        <ele>125</ele>
        <time>2023-11-13T10:45:33Z</time>
      </trkpt>
      <trkpt lat="46.9173" lon="-0.87447">
        <ele>126</ele>
        <time>2023-11-13T10:46:24Z</time>
      </trkpt>
      <trkpt lat="46.91748" lon="-0.87444">
        <ele>125</ele>
        <time>2023-11-13T10:46:48Z</time>
      </trkpt>
      <trkpt lat="46.91767" lon="-0.87445">
        <ele>126</ele>
        <time>2023-11-13T10:47:14Z</time>
      </trkpt>
      <trkpt lat="46.91804" lon="-0.87451">
        <ele>126</ele>
        <time>2023-11-13T10:48:03Z</time>
      </trkpt>
      <trkpt lat="46.91878" lon="-0.87443">
        <ele>129</ele>
        <time>2023-11-13T10:49:42Z</time>
      </trkpt>
      <trkpt lat="46.91897" lon="-0.87448">
        <ele>129</ele>
        <time>2023-11-13T10:50:08Z</time>
      </trkpt>
      <trkpt lat="46.91915" lon="-0.87449">
        <ele>129</ele>
        <time>2023-11-13T10:50:32Z</time>
      </trkpt>
      <trkpt lat="46.91934" lon="-0.87446">
        <ele>130</ele>
        <time>2023-11-13T10:50:58Z</time>
      </trkpt>
      <trkpt lat="46.91951" lon="-0.87435">
        <ele>130</ele>
        <time>2023-11-13T10:51:23Z</time>
      </trkpt>
      <trkpt lat="46.91979" lon="-0.87395">
        <ele>131</ele>
        <time>2023-11-13T10:52:15Z</time>
      </trkpt>
      <trkpt lat="46.92009" lon="-0.87364">
        <ele>130</ele>
        <time>2023-11-13T10:53:04Z</time>
      </trkpt>
      <trkpt lat="46.92044" lon="-0.87346">
        <ele>129</ele>
        <time>2023-11-13T10:53:53Z</time>
      </trkpt>
      <trkpt lat="46.92061" lon="-0.87335">
        <ele>128</ele>
        <time>2023-11-13T10:54:18Z</time>
      </trkpt>
      <trkpt lat="46.92076" lon="-0.87321">
        <ele>129</ele>
        <time>2023-11-13T10:54:42Z</time>
      </trkpt>
      <trkpt lat="46.92093" lon="-0.87332">
        <ele>127</ele>
        <time>2023-11-13T10:55:07Z</time>
      </trkpt>
      <trkpt lat="46.92109" lon="-0.8732">
        <ele>128</ele>
        <time>2023-11-13T10:55:31Z</time>
      </trkpt>
      <trkpt lat="46.92127" lon="-0.87323">
        <ele>128</ele>
        <time>2023-11-13T10:55:55Z</time>
      </trkpt>
      <trkpt lat="46.92144" lon="-0.87334">
        <ele>126</ele>
        <time>2023-11-13T10:56:20Z</time>
      </trkpt>
      <trkpt lat="46.92149" lon="-0.87361">
        <ele>128</ele>
        <time>2023-11-13T10:56:45Z</time>
      </trkpt>
      <trkpt lat="46.92167" lon="-0.87361">
        <ele>127</ele>
        <time>2023-11-13T10:57:09Z</time>
      </trkpt>
      <trkpt lat="46.92205" lon="-0.87356">
        <ele>127</ele>
        <time>2023-11-13T10:58:00Z</time>
      </trkpt>
      <trkpt lat="46.92223" lon="-0.87357">
        <ele>127</ele>
        <time>2023-11-13T10:58:24Z</time>
      </trkpt>
      <trkpt lat="46.92239" lon="-0.87371">
        <ele>127</ele>
        <time>2023-11-13T10:58:49Z</time>
      </trkpt>
      <trkpt lat="46.92314" lon="-0.8739">
        <ele>131</ele>
        <time>2023-11-13T11:00:31Z</time>
      </trkpt>
      <trkpt lat="46.92374" lon="-0.87395">
        <ele>132</ele>
        <time>2023-11-13T11:01:51Z</time>
      </trkpt>
      <trkpt lat="46.92396" lon="-0.87386">
        <ele>131</ele>
        <time>2023-11-13T11:02:21Z</time>
      </trkpt>
      <trkpt lat="46.92447" lon="-0.8732">
        <ele>127</ele>
        <time>2023-11-13T11:03:52Z</time>
      </trkpt>
      <trkpt lat="46.92471" lon="-0.87268">
        <ele>129</ele>
        <time>2023-11-13T11:04:49Z</time>
      </trkpt>
      <trkpt lat="46.9251" lon="-0.87274">
        <ele>127</ele>
        <time>2023-11-13T11:05:42Z</time>
      </trkpt>
      <trkpt lat="46.92584" lon="-0.87313">
        <ele>125</ele>
        <time>2023-11-13T11:07:27Z</time>
      </trkpt>
      <trkpt lat="46.92625" lon="-0.87296">
        <ele>125</ele>
        <time>2023-11-13T11:08:23Z</time>
      </trkpt>
      <trkpt lat="46.9265" lon="-0.87255">
        <ele>123</ele>
        <time>2023-11-13T11:09:13Z</time>
      </trkpt>
      <trkpt lat="46.92677" lon="-0.87219">
        <ele>124</ele>
        <time>2023-11-13T11:10:02Z</time>
      </trkpt>
      <trkpt lat="46.92721" lon="-0.87232">
        <ele>122</ele>
        <time>2023-11-13T11:11:02Z</time>
      </trkpt>
      <trkpt lat="46.92755" lon="-0.87272">
        <ele>123</ele>
        <time>2023-11-13T11:12:00Z</time>
      </trkpt>
      <trkpt lat="46.92792" lon="-0.87302">
        <ele>125</ele>
        <time>2023-11-13T11:12:57Z</time>
      </trkpt>
      <trkpt lat="46.92837" lon="-0.87328">
        <ele>126</ele>
        <time>2023-11-13T11:14:01Z</time>
      </trkpt>
      <trkpt lat="46.92869" lon="-0.873">
        <ele>127</ele>
        <time>2023-11-13T11:14:51Z</time>
      </trkpt>
      <trkpt lat="46.92887" lon="-0.87242">
        <ele>127</ele>
        <time>2023-11-13T11:15:49Z</time>
      </trkpt>
      <trkpt lat="46.92918" lon="-0.8712">
        <ele>131</ele>
        <time>2023-11-13T11:17:48Z</time>
      </trkpt>
      <trkpt lat="46.92902" lon="-0.87038">
        <ele>129</ele>
        <time>2023-11-13T11:19:05Z</time>
      </trkpt>
      <trkpt lat="46.92877" lon="-0.86993">
        <ele>127</ele>
        <time>2023-11-13T11:19:58Z</time>
      </trkpt>
      <trkpt lat="46.92903" lon="-0.86938">
        <ele>128</ele>
        <time>2023-11-13T11:20:59Z</time>
      </trkpt>
      <trkpt lat="46.92941" lon="-0.86897">
        <ele>129</ele>
        <time>2023-11-13T11:22:02Z</time>
      </trkpt>
      <trkpt lat="46.9299" lon="-0.8692">
        <ele>134</ele>
        <time>2023-11-13T11:23:11Z</time>
      </trkpt>
      <trkpt lat="46.93025" lon="-0.86944">
        <ele>134</ele>
        <time>2023-11-13T11:24:02Z</time>
      </trkpt>
      <trkpt lat="46.93075" lon="-0.86938">
        <ele>130</ele>
        <time>2023-11-13T11:25:09Z</time>
      </trkpt>
      <trkpt lat="46.93117" lon="-0.86942">
        <ele>126</ele>
        <time>2023-11-13T11:26:06Z</time>
      </trkpt>
      <trkpt lat="46.93149" lon="-0.8695">
        <ele>124</ele>
        <time>2023-11-13T11:26:49Z</time>
      </trkpt>
      <trkpt lat="46.93201" lon="-0.86944">
        <ele>121</ele>
        <time>2023-11-13T11:27:59Z</time>
      </trkpt>
      <trkpt lat="46.93237" lon="-0.86948">
        <ele>121</ele>
        <time>2023-11-13T11:28:47Z</time>
      </trkpt>
      <trkpt lat="46.93275" lon="-0.86976">
        <ele>120</ele>
        <time>2023-11-13T11:29:43Z</time>
      </trkpt>
      <trkpt lat="46.93289" lon="-0.87034">
        <ele>122</ele>
        <time>2023-11-13T11:30:40Z</time>
      </trkpt>
      <trkpt lat="46.93308" lon="-0.87096">
        <ele>126</ele>
        <time>2023-11-13T11:31:41Z</time>
      </trkpt>
      <trkpt lat="46.93321" lon="-0.87154">
        <ele>129</ele>
        <time>2023-11-13T11:32:37Z</time>
      </trkpt>
      <trkpt lat="46.93338" lon="-0.87197">
        <ele>131</ele>
        <time>2023-11-13T11:33:22Z</time>
      </trkpt>
      <trkpt lat="46.93381" lon="-0.87223">
        <ele>132</ele>
        <time>2023-11-13T11:34:24Z</time>
      </trkpt>
      <trkpt lat="46.93375" lon="-0.87292">
        <ele>134</ele>
        <time>2023-11-13T11:35:28Z</time>
      </trkpt>
      <trkpt lat="46.93356" lon="-0.87354">
        <ele>136</ele>
        <time>2023-11-13T11:36:30Z</time>
      </trkpt>
      <trkpt lat="46.9341" lon="-0.87365">
        <ele>134</ele>
        <time>2023-11-13T11:37:43Z</time>
      </trkpt>
      <trkpt lat="46.93464" lon="-0.87395">
        <ele>135</ele>
        <time>2023-11-13T11:39:00Z</time>
      </trkpt>
      <trkpt lat="46.93502" lon="-0.87412">
        <ele>136</ele>
        <time>2023-11-13T11:39:53Z</time>
      </trkpt>
      <trkpt lat="46.93538" lon="-0.87435">
        <ele>137</ele>
        <time>2023-11-13T11:40:45Z</time>
      </trkpt>
      <trkpt lat="46.93546" lon="-0.8748">
        <ele>136</ele>
        <time>2023-11-13T11:41:27Z</time>
      </trkpt>
      <trkpt lat="46.93517" lon="-0.87485">
        <ele>137</ele>
        <time>2023-11-13T11:42:06Z</time>
      </trkpt>
      <trkpt lat="46.93497" lon="-0.87493">
        <ele>137</ele>
        <time>2023-11-13T11:42:34Z</time>
      </trkpt>
      <trkpt lat="46.93504" lon="-0.87536">
        <ele>135</ele>
        <time>2023-11-13T11:43:14Z</time>
      </trkpt>
      <trkpt lat="46.93621" lon="-0.87639">
        <ele>136</ele>
        <time>2023-11-13T11:46:16Z</time>
      </trkpt>
      <trkpt lat="46.93653" lon="-0.87691">
        <ele>139</ele>
        <time>2023-11-13T11:47:20Z</time>
      </trkpt>
      <trkpt lat="46.93678" lon="-0.87815">
        <ele>140</ele>
        <time>2023-11-13T11:49:18Z</time>
      </trkpt>
      <trkpt lat="46.93709" lon="-0.87877">
        <ele>140</ele>
        <time>2023-11-13T11:50:28Z</time>
      </trkpt>
      <trkpt lat="46.93735" lon="-0.87946">
        <ele>139</ele>
        <time>2023-11-13T11:51:40Z</time>
      </trkpt>
      <trkpt lat="46.93746" lon="-0.88021">
        <ele>140</ele>
        <time>2023-11-13T11:52:50Z</time>
      </trkpt>
      <trkpt lat="46.93782" lon="-0.88058">
        <ele>140</ele>
        <time>2023-11-13T11:53:48Z</time>
      </trkpt>
      <trkpt lat="46.93826" lon="-0.88094">
        <ele>138</ele>
        <time>2023-11-13T11:54:56Z</time>
      </trkpt>
      <trkpt lat="46.93866" lon="-0.88133">
        <ele>137</ele>
        <time>2023-11-13T11:56:00Z</time>
      </trkpt>
      <trkpt lat="46.93888" lon="-0.88208">
        <ele>138</ele>
        <time>2023-11-13T11:57:14Z</time>
      </trkpt>
      <trkpt lat="46.9391" lon="-0.88255">
        <ele>141</ele>
        <time>2023-11-13T11:58:06Z</time>
      </trkpt>
      <trkpt lat="46.94036" lon="-0.88345">
        <ele>159</ele>
        <time>2023-11-13T12:01:13Z</time>
      </trkpt>
      <trkpt lat="46.94065" lon="-0.88373">
        <ele>162</ele>
        <time>2023-11-13T12:02:00Z</time>
      </trkpt>
      <trkpt lat="46.94106" lon="-0.88392">
        <ele>164</ele>
        <time>2023-11-13T12:02:57Z</time>
      </trkpt>
      <trkpt lat="46.94146" lon="-0.88401">
        <ele>166</ele>
        <time>2023-11-13T12:03:51Z</time>
      </trkpt>
      <trkpt lat="46.94182" lon="-0.88433">
        <ele>167</ele>
        <time>2023-11-13T12:04:47Z</time>
      </trkpt>
      <trkpt lat="46.9426" lon="-0.88525">
        <ele>165</ele>
        <time>2023-11-13T12:07:01Z</time>
      </trkpt>
      <trkpt lat="46.94288" lon="-0.88583">
        <ele>165</ele>
        <time>2023-11-13T12:08:06Z</time>
      </trkpt>
      <trkpt lat="46.9431" lon="-0.88646">
        <ele>166</ele>
        <time>2023-11-13T12:09:10Z</time>
      </trkpt>
      <trkpt lat="46.94336" lon="-0.88577">
        <ele>164</ele>
        <time>2023-11-13T12:10:22Z</time>
      </trkpt>
      <trkpt lat="46.94355" lon="-0.88549">
        <ele>162</ele>
        <time>2023-11-13T12:10:58Z</time>
      </trkpt>
      <trkpt lat="46.94371" lon="-0.88498">
        <ele>160</ele>
        <time>2023-11-13T12:11:49Z</time>
      </trkpt>
      <trkpt lat="46.94395" lon="-0.88437">
        <ele>157</ele>
        <time>2023-11-13T12:12:53Z</time>
      </trkpt>
      <trkpt lat="46.94418" lon="-0.88392">
        <ele>152</ele>
        <time>2023-11-13T12:13:44Z</time>
      </trkpt>
      <trkpt lat="46.94456" lon="-0.88388">
        <ele>150</ele>
        <time>2023-11-13T12:14:35Z</time>
      </trkpt>
      <trkpt lat="46.94491" lon="-0.88365">
        <ele>146</ele>
        <time>2023-11-13T12:15:26Z</time>
      </trkpt>
      <trkpt lat="46.94521" lon="-0.88382">
        <ele>147</ele>
        <time>2023-11-13T12:16:09Z</time>
      </trkpt>
      <trkpt lat="46.94532" lon="-0.88422">
        <ele>150</ele>
        <time>2023-11-13T12:16:49Z</time>
      </trkpt>
      <trkpt lat="46.94566" lon="-0.88442">
        <ele>153</ele>
        <time>2023-11-13T12:17:37Z</time>
      </trkpt>
      <trkpt lat="46.94603" lon="-0.88427">
        <ele>152</ele>
        <time>2023-11-13T12:18:29Z</time>
      </trkpt>
      <trkpt lat="46.94645" lon="-0.88405">
        <ele>148</ele>
        <time>2023-11-13T12:19:28Z</time>
      </trkpt>
      <trkpt lat="46.94689" lon="-0.88365">
        <ele>143</ele>
        <time>2023-11-13T12:20:37Z</time>
      </trkpt>
      <trkpt lat="46.94774" lon="-0.88325">
        <ele>136</ele>
        <time>2023-11-13T12:22:36Z</time>
      </trkpt>
      <trkpt lat="46.94803" lon="-0.88256">
        <ele>127</ele>
        <time>2023-11-13T12:23:50Z</time>
      </trkpt>
      <trkpt lat="46.9474" lon="-0.88245">
        <ele>129</ele>
        <time>2023-11-13T12:25:15Z</time>
      </trkpt>
      <trkpt lat="46.94767" lon="-0.88227">
        <ele>126</ele>
        <time>2023-11-13T12:25:54Z</time>
      </trkpt>
      <trkpt lat="46.94808" lon="-0.88223">
        <ele>123</ele>
        <time>2023-11-13T12:26:49Z</time>
      </trkpt>
      <trkpt lat="46.94822" lon="-0.88182">
        <ele>119</ele>
        <time>2023-11-13T12:27:31Z</time>
      </trkpt>
      <trkpt lat="46.94836" lon="-0.88107">
        <ele>116</ele>
        <time>2023-11-13T12:28:42Z</time>
      </trkpt>
      <trkpt lat="46.94856" lon="-0.88073">
        <ele>115</ele>
        <time>2023-11-13T12:29:23Z</time>
      </trkpt>
      <trkpt lat="46.94949" lon="-0.8815">
        <ele>116</ele>
        <time>2023-11-13T12:31:45Z</time>
      </trkpt>
      <trkpt lat="46.9496" lon="-0.88152">
        <ele>116</ele>
        <time>2023-11-13T12:32:00Z</time>
      </trkpt>
      <trkpt lat="46.94977" lon="-0.88143">
        <ele>117</ele>
        <time>2023-11-13T12:32:24Z</time>
      </trkpt>
      <trkpt lat="46.94996" lon="-0.8814">
        <ele>118</ele>
        <time>2023-11-13T12:32:50Z</time>
      </trkpt>
      <trkpt lat="46.95013" lon="-0.88147">
        <ele>120</ele>
        <time>2023-11-13T12:33:13Z</time>
      </trkpt>
      <trkpt lat="46.95058" lon="-0.88197">
        <ele>123</ele>
        <time>2023-11-13T12:34:29Z</time>
      </trkpt>
      <trkpt lat="46.9507" lon="-0.88218">
        <ele>123</ele>
        <time>2023-11-13T12:34:54Z</time>
      </trkpt>
      <trkpt lat="46.95081" lon="-0.88239">
        <ele>123</ele>
        <time>2023-11-13T12:35:18Z</time>
      </trkpt>
      <trkpt lat="46.95096" lon="-0.88289">
        <ele>122</ele>
        <time>2023-11-13T12:36:08Z</time>
      </trkpt>
      <trkpt lat="46.95106" lon="-0.88311">
        <ele>122</ele>
        <time>2023-11-13T12:36:32Z</time>
      </trkpt>
      <trkpt lat="46.95121" lon="-0.88328">
        <ele>122</ele>
        <time>2023-11-13T12:36:57Z</time>
      </trkpt>
      <trkpt lat="46.95154" lon="-0.88352">
        <ele>122</ele>
        <time>2023-11-13T12:37:46Z</time>
      </trkpt>
      <trkpt lat="46.95169" lon="-0.88367">
        <ele>121</ele>
        <time>2023-11-13T12:38:10Z</time>
      </trkpt>
      <trkpt lat="46.95187" lon="-0.8837">
        <ele>121</ele>
        <time>2023-11-13T12:38:34Z</time>
      </trkpt>
      <trkpt lat="46.95204" lon="-0.88379">
        <ele>121</ele>
        <time>2023-11-13T12:38:59Z</time>
      </trkpt>
      <trkpt lat="46.95223" lon="-0.8838">
        <ele>121</ele>
        <time>2023-11-13T12:39:24Z</time>
      </trkpt>
      <trkpt lat="46.95261" lon="-0.8839">
        <ele>119</ele>
        <time>2023-11-13T12:40:15Z</time>
      </trkpt>
      <trkpt lat="46.95298" lon="-0.8838">
        <ele>118</ele>
        <time>2023-11-13T12:41:06Z</time>
      </trkpt>
      <trkpt lat="46.95334" lon="-0.88363">
        <ele>116</ele>
        <time>2023-11-13T12:41:56Z</time>
      </trkpt>
      <trkpt lat="46.95352" lon="-0.8837">
        <ele>115</ele>
        <time>2023-11-13T12:42:21Z</time>
      </trkpt>
      <trkpt lat="46.95366" lon="-0.88388">
        <ele>113</ele>
        <time>2023-11-13T12:42:46Z</time>
      </trkpt>
      <trkpt lat="46.95384" lon="-0.88381">
        <ele>113</ele>
        <time>2023-11-13T12:43:11Z</time>
      </trkpt>
      <trkpt lat="46.95458" lon="-0.88366">
        <ele>113</ele>
        <time>2023-11-13T12:44:50Z</time>
      </trkpt>
      <trkpt lat="46.95487" lon="-0.88331">
        <ele>114</ele>
        <time>2023-11-13T12:45:41Z</time>
      </trkpt>
      <trkpt lat="46.95503" lon="-0.88318">
        <ele>116</ele>
        <time>2023-11-13T12:46:05Z</time>
      </trkpt>
      <trkpt lat="46.95521" lon="-0.88313">
        <ele>118</ele>
        <time>2023-11-13T12:46:29Z</time>
      </trkpt>
      <trkpt lat="46.95539" lon="-0.88314">
        <ele>118</ele>
        <time>2023-11-13T12:46:53Z</time>
      </trkpt>
      <trkpt lat="46.95558" lon="-0.88317">
        <ele>118</ele>
        <time>2023-11-13T12:47:19Z</time>
      </trkpt>
      <trkpt lat="46.95576" lon="-0.88325">
        <ele>118</ele>
        <time>2023-11-13T12:47:44Z</time>
      </trkpt>
      <trkpt lat="46.95604" lon="-0.88361">
        <ele>114</ele>
        <time>2023-11-13T12:48:34Z</time>
      </trkpt>
      <trkpt lat="46.9562" lon="-0.88375">
        <ele>113</ele>
        <time>2023-11-13T12:48:59Z</time>
      </trkpt>
      <trkpt lat="46.95656" lon="-0.88392">
        <ele>112</ele>
        <time>2023-11-13T12:49:49Z</time>
      </trkpt>
      <trkpt lat="46.95673" lon="-0.88405">
        <ele>111</ele>
        <time>2023-11-13T12:50:15Z</time>
      </trkpt>
      <trkpt lat="46.95715" lon="-0.88458">
        <ele>111</ele>
        <time>2023-11-13T12:51:29Z</time>
      </trkpt>
      <trkpt lat="46.95761" lon="-0.88503">
        <ele>110</ele>
        <time>2023-11-13T12:52:42Z</time>
      </trkpt>
      <trkpt lat="46.95787" lon="-0.88542">
        <ele>111</ele>
        <time>2023-11-13T12:53:32Z</time>
      </trkpt>
      <trkpt lat="46.95802" lon="-0.88557">
        <ele>111</ele>
        <time>2023-11-13T12:53:56Z</time>
      </trkpt>
      <trkpt lat="46.95835" lon="-0.88624">
        <ele>111</ele>
        <time>2023-11-13T12:55:12Z</time>
      </trkpt>
      <trkpt lat="46.95859" lon="-0.88664">
        <ele>111</ele>
        <time>2023-11-13T12:56:00Z</time>
      </trkpt>
      <trkpt lat="46.95844" lon="-0.88678">
        <ele>111</ele>
        <time>2023-11-13T12:56:24Z</time>
      </trkpt>
    </trkseg>
  </trk>
</gpx>